createdAt,value
2019-05-23T00:00:47.534Z,0
2019-05-23T00:01:47.518Z,0
2019-05-23T00:02:47.520Z,0
2019-05-23T00:03:47.495Z,0
2019-05-23T00:04:47.486Z,0
2019-05-23T00:05:47.478Z,0
2019-05-23T00:06:47.474Z,0
2019-05-23T00:07:47.464Z,0
2019-05-23T00:08:47.466Z,0
2019-05-23T00:09:47.895Z,0
2019-05-23T00:10:47.435Z,0
2019-05-23T00:11:47.840Z,0
2019-05-23T00:12:47.467Z,0
2019-05-23T00:13:47.426Z,0
2019-05-23T00:14:47.412Z,0
2019-05-23T00:15:47.400Z,0
2019-05-23T00:16:47.447Z,0
2019-05-23T00:17:47.385Z,0
2019-05-23T00:18:47.399Z,0
2019-05-23T00:19:47.380Z,0
2019-05-23T00:20:47.377Z,0
2019-05-23T00:21:47.357Z,0
2019-05-23T00:22:47.352Z,0
2019-05-23T00:23:47.356Z,0
2019-05-23T00:24:47.333Z,0
2019-05-23T00:25:47.328Z,0
2019-05-23T00:26:47.318Z,0
2019-05-23T00:27:47.315Z,0
2019-05-23T00:28:47.311Z,0
2019-05-23T00:29:47.662Z,0
2019-05-23T00:30:47.298Z,0
2019-05-23T00:31:47.310Z,0
2019-05-23T00:32:47.284Z,0
2019-05-23T00:33:47.279Z,0
2019-05-23T00:34:47.263Z,0
2019-05-23T00:35:47.259Z,0
2019-05-23T00:36:47.311Z,0
2019-05-23T00:37:47.240Z,0
2019-05-23T00:38:47.224Z,0
2019-05-23T00:39:47.217Z,0
2019-05-23T00:40:47.222Z,0
2019-05-23T00:41:47.211Z,0
2019-05-23T00:42:47.218Z,0
2019-05-23T00:43:47.191Z,0
2019-05-23T00:44:47.200Z,0
2019-05-23T00:45:47.194Z,0
2019-05-23T00:46:47.179Z,0
2019-05-23T00:47:47.175Z,0
2019-05-23T00:48:47.144Z,0
2019-05-23T00:49:47.147Z,0
2019-05-23T00:50:47.133Z,0
2019-05-23T00:51:46.899Z,0
2019-05-23T00:52:47.136Z,0
2019-05-23T00:53:46.917Z,0
2019-05-23T00:54:47.096Z,0
2019-05-23T00:55:47.105Z,0
2019-05-23T00:56:47.084Z,0
2019-05-23T00:57:47.141Z,0
2019-05-23T00:58:47.073Z,0
2019-05-23T00:59:47.054Z,0
2019-05-23T01:00:47.060Z,0
2019-05-23T01:01:47.084Z,0
2019-05-23T01:02:47.040Z,0
2019-05-23T01:03:47.037Z,0
2019-05-23T01:04:47.021Z,0
2019-05-23T01:05:47.020Z,0
2019-05-23T01:06:47.022Z,0
2019-05-23T01:07:47.019Z,0
2019-05-23T01:08:47.085Z,0
2019-05-23T01:09:46.982Z,0
2019-05-23T01:10:46.974Z,0
2019-05-23T01:11:46.979Z,0
2019-05-23T01:12:46.960Z,0
2019-05-23T01:13:46.958Z,0
2019-05-23T01:14:46.946Z,0
2019-05-23T01:15:46.994Z,0
2019-05-23T01:16:46.945Z,0
2019-05-23T01:17:46.916Z,0
2019-05-23T01:18:46.911Z,0
2019-05-23T01:19:46.898Z,0
2019-05-23T01:20:46.896Z,0
2019-05-23T01:21:46.950Z,0
2019-05-23T01:22:46.877Z,0
2019-05-23T01:23:46.879Z,0
2019-05-23T01:24:46.861Z,0
2019-05-23T01:25:46.856Z,0
2019-05-23T01:26:46.876Z,0
2019-05-23T01:27:46.594Z,0
2019-05-23T01:28:46.850Z,0
2019-05-23T01:29:52.367Z,0
2019-05-23T01:30:46.839Z,0
2019-05-23T01:31:46.621Z,0
2019-05-23T01:32:46.799Z,0
2019-05-23T01:33:46.818Z,0
2019-05-23T01:34:46.784Z,0
2019-05-23T01:35:46.791Z,0
2019-05-23T01:36:46.788Z,0
2019-05-23T01:37:46.785Z,0
2019-05-23T01:38:46.758Z,0
2019-05-23T01:39:46.777Z,0
2019-05-23T01:40:46.739Z,0
2019-05-23T01:41:46.758Z,0
2019-05-23T01:42:46.726Z,0
2019-05-23T01:43:46.713Z,0
2019-05-23T01:44:46.702Z,0
2019-05-23T01:45:46.696Z,0
2019-05-23T01:46:46.685Z,0
2019-05-23T01:47:46.683Z,0
2019-05-23T01:48:46.429Z,0
2019-05-23T01:49:46.666Z,0
2019-05-23T01:50:46.657Z,0
2019-05-23T01:51:46.647Z,0
2019-05-23T01:52:46.693Z,0
2019-05-23T01:53:46.638Z,0
2019-05-23T01:54:46.633Z,0
2019-05-23T01:55:46.617Z,0
2019-05-23T01:56:46.612Z,0
2019-05-23T01:57:46.395Z,0
2019-05-23T01:58:46.593Z,0
2019-05-23T01:59:46.097Z,0
2019-05-23T02:00:46.338Z,0
2019-05-23T02:01:46.598Z,0
2019-05-23T02:02:46.575Z,0
2019-05-23T02:03:46.598Z,0
2019-05-23T02:04:46.545Z,0
2019-05-23T02:05:46.539Z,0
2019-05-23T02:06:46.552Z,0
2019-05-23T02:07:46.534Z,0
2019-05-23T02:08:46.553Z,0
2019-05-23T02:09:46.533Z,0
2019-05-23T02:10:46.532Z,0
2019-05-23T02:11:46.507Z,0
2019-05-23T02:12:46.251Z,0
2019-05-23T02:13:46.252Z,0
2019-05-23T02:14:46.474Z,0
2019-05-23T02:15:46.476Z,0
2019-05-23T02:16:46.451Z,0
2019-05-23T02:17:46.200Z,0
2019-05-23T02:18:46.196Z,0
2019-05-23T02:19:46.443Z,0
2019-05-23T02:20:46.422Z,0
2019-05-23T02:21:46.450Z,0
2019-05-23T02:22:46.399Z,4
2019-05-23T02:23:46.459Z,4
2019-05-23T02:24:46.329Z,4
2019-05-23T02:25:46.566Z,0
2019-05-23T02:26:46.160Z,4
2019-05-23T02:27:46.378Z,4
2019-05-23T02:28:46.378Z,4
2019-05-23T02:29:46.381Z,4
2019-05-23T02:30:46.345Z,8
2019-05-23T02:31:46.364Z,4
2019-05-23T02:32:46.325Z,8
2019-05-23T02:33:46.331Z,8
2019-05-23T02:34:46.089Z,8
2019-05-23T02:35:46.304Z,8
2019-05-23T02:36:46.326Z,12
2019-05-23T02:37:46.046Z,12
2019-05-23T02:38:46.287Z,16
2019-05-23T02:39:46.059Z,16
2019-05-23T02:40:46.266Z,16
2019-05-23T02:41:46.266Z,20
2019-05-23T02:42:46.277Z,20
2019-05-23T02:43:46.237Z,28
2019-05-23T02:44:46.231Z,28
2019-05-23T02:45:46.230Z,32
2019-05-23T02:46:46.213Z,36
2019-05-23T02:47:46.241Z,40
2019-05-23T02:48:46.213Z,40
2019-05-23T02:49:45.953Z,48
2019-05-23T02:50:46.187Z,52
2019-05-23T02:51:46.192Z,60
2019-05-23T02:52:46.173Z,68
2019-05-23T02:53:46.194Z,76
2019-05-23T02:54:46.157Z,88
2019-05-23T02:55:46.158Z,92
2019-05-23T02:56:46.138Z,104
2019-05-23T02:57:46.146Z,116
2019-05-23T02:58:46.131Z,124
2019-05-23T02:59:46.134Z,136
2019-05-23T03:01:00.679Z,148
2019-05-23T03:01:46.106Z,156
2019-05-23T03:02:46.113Z,168
2019-05-23T03:03:46.084Z,184
2019-05-23T03:04:46.071Z,196
2019-05-23T03:05:46.090Z,208
2019-05-23T03:06:46.079Z,224
2019-05-23T03:07:46.112Z,232
2019-05-23T03:08:46.038Z,236
2019-05-23T03:09:46.028Z,228
2019-05-23T03:10:46.040Z,224
2019-05-23T03:11:46.017Z,224
2019-05-23T03:12:46.127Z,232
2019-05-23T03:13:46.012Z,244
2019-05-23T03:14:45.768Z,252
2019-05-23T03:15:45.774Z,264
2019-05-23T03:16:46.144Z,272
2019-05-23T03:17:46.002Z,288
2019-05-23T03:18:45.959Z,304
2019-05-23T03:19:45.954Z,324
2019-05-23T03:20:45.945Z,348
2019-05-23T03:21:45.943Z,364
2019-05-23T03:22:45.932Z,384
2019-05-23T03:23:45.680Z,404
2019-05-23T03:24:45.909Z,420
2019-05-23T03:25:45.905Z,444
2019-05-23T03:26:45.891Z,464
2019-05-23T03:27:45.645Z,488
2019-05-23T03:28:45.903Z,512
2019-05-23T03:29:45.876Z,532
2019-05-23T03:30:45.899Z,548
2019-05-23T03:31:45.648Z,564
2019-05-23T03:32:47.087Z,580
2019-05-23T03:33:45.854Z,600
2019-05-23T03:34:45.860Z,624
2019-05-23T03:35:45.784Z,656
2019-05-23T03:36:45.590Z,692
2019-05-23T03:37:45.815Z,724
2019-05-23T03:38:45.807Z,756
2019-05-23T03:39:45.824Z,780
2019-05-23T03:40:45.798Z,808
2019-05-23T03:41:45.807Z,828
2019-05-23T03:42:45.765Z,856
2019-05-23T03:43:45.757Z,884
2019-05-23T03:44:45.954Z,916
2019-05-23T03:45:46.892Z,948
2019-05-23T03:46:45.735Z,984
2019-05-23T03:47:45.722Z,1012
2019-05-23T03:48:45.799Z,1036
2019-05-23T03:49:45.743Z,1052
2019-05-23T03:50:45.694Z,1064
2019-05-23T03:51:45.696Z,1080
2019-05-23T03:52:45.675Z,1100
2019-05-23T03:53:45.685Z,1136
2019-05-23T03:54:45.664Z,1180
2019-05-23T03:55:45.668Z,1228
2019-05-23T03:56:45.661Z,1280
2019-05-23T03:57:45.645Z,1340
2019-05-23T03:58:45.639Z,1408
2019-05-23T03:59:45.624Z,1476
2019-05-23T04:00:45.618Z,1560
2019-05-23T04:01:54.916Z,1672
2019-05-23T04:02:45.614Z,1760
2019-05-23T04:03:47.411Z,1868
2019-05-23T04:04:45.587Z,1964
2019-05-23T04:05:45.592Z,2056
2019-05-23T04:06:45.573Z,2140
2019-05-23T04:07:45.634Z,2216
2019-05-23T04:08:45.311Z,2288
2019-05-23T04:09:45.560Z,2364
2019-05-23T04:10:45.579Z,2468
2019-05-23T04:11:45.544Z,2544
2019-05-23T04:12:45.527Z,2596
2019-05-23T04:13:45.529Z,2640
2019-05-23T04:14:45.524Z,2692
2019-05-23T04:15:45.505Z,2752
2019-05-23T04:16:45.511Z,2824
2019-05-23T04:17:45.498Z,2892
2019-05-23T04:18:45.474Z,2964
2019-05-23T04:19:45.473Z,3024
2019-05-23T04:20:44.977Z,3088
2019-05-23T04:21:45.452Z,3160
2019-05-23T04:22:45.446Z,3220
2019-05-23T04:23:45.227Z,3280
2019-05-23T04:24:45.461Z,3344
2019-05-23T04:25:45.438Z,3412
2019-05-23T04:26:45.416Z,3476
2019-05-23T04:27:45.420Z,3536
2019-05-23T04:28:45.397Z,3600
2019-05-23T04:29:45.528Z,3692
2019-05-23T04:30:45.393Z,3792
2019-05-23T04:31:45.379Z,3840
2019-05-23T04:32:45.493Z,3920
2019-05-23T04:33:45.389Z,3992
2019-05-23T04:34:45.399Z,4052
2019-05-23T04:35:45.372Z,4104
2019-05-23T04:36:45.122Z,4136
2019-05-23T04:37:45.348Z,4172
2019-05-23T04:38:45.331Z,4244
2019-05-23T04:39:45.312Z,4360
2019-05-23T04:40:45.300Z,4516
2019-05-23T04:41:45.299Z,4692
2019-05-23T04:42:45.294Z,4864
2019-05-23T04:43:45.285Z,5016
2019-05-23T04:44:48.913Z,5144
2019-05-23T04:45:45.276Z,5228
2019-05-23T04:46:45.291Z,5308
2019-05-23T04:47:45.139Z,5404
2019-05-23T04:48:45.280Z,5516
2019-05-23T04:49:45.252Z,5672
2019-05-23T04:50:45.250Z,5872
2019-05-23T04:51:45.230Z,6100
2019-05-23T04:52:44.970Z,6328
2019-05-23T04:53:45.216Z,6500
2019-05-23T04:54:45.204Z,6556
2019-05-23T04:55:45.237Z,6544
2019-05-23T04:56:45.196Z,6460
2019-05-23T04:57:45.200Z,6336
2019-05-23T04:58:45.256Z,6212
2019-05-23T04:59:45.175Z,6168
2019-05-23T05:00:45.161Z,6304
2019-05-23T05:01:45.265Z,8052
2019-05-23T05:02:45.139Z,7468
2019-05-23T05:03:45.147Z,7724
2019-05-23T05:04:45.243Z,10828
2019-05-23T05:05:45.483Z,20608
2019-05-23T05:06:45.118Z,13696
2019-05-23T05:07:45.108Z,10276
2019-05-23T05:08:45.106Z,9664
2019-05-23T05:09:45.110Z,10636
2019-05-23T05:10:45.102Z,13344
2019-05-23T05:11:45.085Z,13456
2019-05-23T05:12:45.109Z,17408
2019-05-23T05:13:45.122Z,11580
2019-05-23T05:14:45.059Z,13548
2019-05-23T05:15:45.094Z,10668
2019-05-23T05:16:45.061Z,10524
2019-05-23T05:17:45.048Z,10564
2019-05-23T05:18:45.051Z,10752
2019-05-23T05:19:45.036Z,11132
2019-05-23T05:20:45.042Z,11576
2019-05-23T05:21:45.044Z,11972
2019-05-23T05:22:45.132Z,12308
2019-05-23T05:23:44.770Z,12572
2019-05-23T05:24:47.181Z,12884
2019-05-23T05:25:44.998Z,13312
2019-05-23T05:26:45.017Z,13844
2019-05-23T05:27:45.006Z,26368
2019-05-23T05:28:44.998Z,27008
2019-05-23T05:29:45.034Z,14796
2019-05-23T05:30:45.115Z,15488
2019-05-23T05:31:44.970Z,12416
2019-05-23T05:32:52.504Z,11612
2019-05-23T05:33:44.734Z,11124
2019-05-23T05:34:44.967Z,10540
2019-05-23T05:35:44.945Z,10156
2019-05-23T05:36:44.946Z,10352
2019-05-23T05:37:44.947Z,12604
2019-05-23T05:38:44.948Z,13552
2019-05-23T05:39:44.932Z,15520
2019-05-23T05:40:44.943Z,22976
2019-05-23T05:41:44.943Z,30752
2019-05-23T05:42:44.940Z,40352
2019-05-23T05:43:44.909Z,40096
2019-05-23T05:44:44.916Z,37152
2019-05-23T05:45:44.937Z,38400
2019-05-23T05:46:44.926Z,36896
2019-05-23T05:47:44.927Z,42816
2019-05-23T05:48:44.904Z,36608
2019-05-23T05:49:48.728Z,37376
2019-05-23T05:50:44.890Z,29248
2019-05-23T05:51:44.942Z,26208
2019-05-23T05:52:44.916Z,34240
2019-05-23T05:53:44.891Z,18944
2019-05-23T05:54:44.883Z,20864
2019-05-23T05:55:44.892Z,38432
2019-05-23T05:56:44.892Z,43936
2019-05-23T05:57:44.901Z,27168
2019-05-23T05:58:44.896Z,24576
2019-05-23T05:59:44.901Z,18528
2019-05-23T06:00:44.953Z,22048
2019-05-23T06:01:44.896Z,28672
2019-05-23T06:03:02.582Z,39808
2019-05-23T06:03:44.890Z,44672
2019-05-23T06:04:44.891Z,45728
2019-05-23T06:05:44.900Z,42560
2019-05-23T06:06:44.894Z,40384
2019-05-23T06:07:44.904Z,43808
2019-05-23T06:08:44.958Z,48704
2019-05-23T06:09:44.917Z,48192
2019-05-23T06:10:44.911Z,43552
2019-05-23T06:11:44.927Z,40640
2019-05-23T06:12:44.915Z,41600
2019-05-23T06:13:44.930Z,43200
2019-05-23T06:14:48.872Z,41952
2019-05-23T06:15:44.931Z,41152
2019-05-23T06:16:45.162Z,38912
2019-05-23T06:17:44.946Z,41952
2019-05-23T06:18:44.955Z,43968
2019-05-23T06:19:45.020Z,42240
2019-05-23T06:20:47.908Z,37760
2019-05-23T06:21:44.774Z,33216
2019-05-23T06:22:44.983Z,32640
2019-05-23T06:23:45.054Z,34112
2019-05-23T06:25:00.736Z,33536
2019-05-23T06:25:45.020Z,33120
2019-05-23T06:26:44.770Z,34048
2019-05-23T06:27:45.044Z,38272
2019-05-23T06:28:45.037Z,45248
2019-05-23T06:29:45.045Z,52736
2019-05-23T06:31:45.057Z,57120
2019-05-23T06:32:59.793Z,54080
2019-05-23T06:33:45.078Z,53760
2019-05-23T06:34:45.091Z,53664
2019-05-23T06:35:46.371Z,51360
2019-05-23T06:36:45.111Z,51168
2019-05-23T06:37:45.142Z,53184
2019-05-23T06:38:45.136Z,58688
2019-05-23T06:39:45.141Z,67040
2019-05-23T06:41:45.135Z,70464
2019-05-23T06:42:45.169Z,66656
2019-05-23T06:43:45.167Z,64800
2019-05-23T06:44:45.245Z,68256
2019-05-23T06:45:45.232Z,74720
2019-05-23T06:46:59.234Z,77216
2019-05-23T06:47:45.256Z,78464
2019-05-23T06:48:50.477Z,78560
2019-05-23T06:49:45.240Z,78400
2019-05-23T06:50:45.263Z,67264
2019-05-23T06:51:58.002Z,74208
2019-05-23T06:52:45.360Z,76256
2019-05-23T06:53:45.300Z,74368
2019-05-23T06:54:45.301Z,73184
2019-05-23T06:55:45.319Z,76448
2019-05-23T06:56:45.350Z,77728
2019-05-23T06:57:45.349Z,78368
2019-05-23T06:58:47.919Z,83936
2019-05-23T06:59:45.134Z,84800
2019-05-23T07:00:45.562Z,82304
2019-05-23T07:01:45.393Z,79008
2019-05-23T07:02:45.437Z,80416
2019-05-23T07:03:50.507Z,79424
2019-05-23T07:04:45.234Z,78144
2019-05-23T07:05:45.463Z,80288
2019-05-23T07:06:45.527Z,79168
2019-05-23T07:07:45.637Z,75840
2019-05-23T07:08:45.336Z,76192
2019-05-23T07:09:45.570Z,78624
2019-05-23T07:10:46.949Z,82272
2019-05-23T07:11:45.545Z,85888
2019-05-23T07:12:45.331Z,85696
2019-05-23T07:13:45.624Z,84992
2019-05-23T07:14:45.694Z,93600
2019-05-23T07:15:45.603Z,95872
2019-05-23T07:16:45.610Z,96896
2019-05-23T07:17:45.620Z,94752
2019-05-23T07:18:45.993Z,89184
2019-05-23T07:19:45.650Z,81504
2019-05-23T07:20:45.862Z,76352
2019-05-23T07:21:45.685Z,68192
2019-05-23T07:22:45.823Z,58592
2019-05-23T07:23:45.750Z,49568
2019-05-23T07:25:31.394Z,45888
2019-05-23T07:26:58.525Z,48480
2019-05-23T07:27:58.329Z,57792
2019-05-23T07:28:45.804Z,59360
2019-05-23T07:30:13.225Z,53408
2019-05-23T07:30:48.382Z,62912
2019-05-23T07:31:45.692Z,62112
2019-05-23T07:32:58.604Z,58720
2019-05-23T07:34:05.204Z,56064
2019-05-23T07:34:45.888Z,53856
2019-05-23T07:35:45.957Z,52960
2019-05-23T07:36:46.225Z,52480
2019-05-23T07:37:46.128Z,53024
2019-05-23T07:38:46.061Z,51488
2019-05-23T07:39:45.955Z,50048
2019-05-23T07:40:46.271Z,48768
2019-05-23T07:41:45.986Z,48960
2019-05-23T07:42:46.007Z,53728
2019-05-23T07:43:46.016Z,52224
2019-05-23T07:44:55.214Z,69024
2019-05-23T07:45:47.065Z,65952
2019-05-23T07:46:46.061Z,40352
2019-05-23T07:47:47.371Z,21760
2019-05-23T07:48:45.846Z,48992
2019-05-23T07:49:46.104Z,56672
2019-05-23T07:50:46.193Z,57792
2019-05-23T07:51:46.125Z,53056
2019-05-23T07:52:46.149Z,54208
2019-05-23T07:53:48.832Z,54752
2019-05-23T07:54:46.164Z,37408
2019-05-23T07:55:46.245Z,52128
2019-05-23T07:56:46.207Z,56416
2019-05-23T07:57:46.231Z,64608
2019-05-23T07:58:46.214Z,71712
2019-05-23T07:59:46.232Z,69920
2019-05-23T08:00:46.250Z,68800
2019-05-23T08:01:46.134Z,75008
2019-05-23T08:02:46.358Z,33856
2019-05-23T08:03:46.140Z,90208
2019-05-23T08:04:46.306Z,90880
2019-05-23T08:05:46.348Z,93248
2019-05-23T08:06:51.112Z,98624
2019-05-23T08:07:46.551Z,108992
2019-05-23T08:08:46.116Z,64768
2019-05-23T08:09:46.373Z,61216
2019-05-23T08:10:46.473Z,116736
2019-05-23T08:11:48.480Z,108960
2019-05-23T08:12:46.409Z,103232
2019-05-23T08:13:46.620Z,84064
2019-05-23T08:14:46.449Z,72384
2019-05-23T08:15:46.329Z,68032
2019-05-23T08:16:46.461Z,62496
2019-05-23T08:17:46.316Z,52608
2019-05-23T08:18:46.481Z,69632
2019-05-23T08:19:56.561Z,53312
2019-05-23T08:20:46.523Z,23456
2019-05-23T08:21:46.547Z,44608
2019-05-23T08:22:46.551Z,85184
2019-05-23T08:23:46.559Z,79040
2019-05-23T08:24:50.315Z,76576
2019-05-23T08:25:46.659Z,76128
2019-05-23T08:26:46.634Z,77600
2019-05-23T08:27:46.673Z,79904
2019-05-23T08:29:30.598Z,74016
2019-05-23T08:29:46.627Z,71264
2019-05-23T08:30:46.652Z,70528
2019-05-23T08:31:46.655Z,77184
2019-05-23T08:32:46.671Z,74784
2019-05-23T08:33:46.682Z,77984
2019-05-23T08:34:49.741Z,67616
2019-05-23T08:35:46.709Z,60032
2019-05-23T08:36:46.716Z,61376
2019-05-23T08:37:46.741Z,67520
2019-05-23T08:38:46.743Z,66752
2019-05-23T08:39:46.541Z,78048
2019-05-23T08:40:46.806Z,86976
2019-05-23T08:41:46.778Z,89568
2019-05-23T08:42:46.820Z,95072
2019-05-23T08:43:46.792Z,100768
2019-05-23T08:44:46.841Z,96960
2019-05-23T08:45:46.823Z,85280
2019-05-23T08:46:46.844Z,65184
2019-05-23T08:47:46.846Z,49600
2019-05-23T08:48:46.848Z,29280
2019-05-23T08:49:46.934Z,12396
2019-05-23T08:50:46.865Z,12504
2019-05-23T08:51:46.885Z,12100
2019-05-23T08:52:46.889Z,12308
2019-05-23T08:53:46.900Z,10264
2019-05-23T08:54:46.924Z,10272
2019-05-23T08:55:46.916Z,10700
2019-05-23T08:56:46.981Z,12736
2019-05-23T08:57:46.926Z,12172
2019-05-23T08:58:46.931Z,10616
2019-05-23T08:59:46.943Z,10044
2019-05-23T09:00:46.968Z,10188
2019-05-23T09:01:46.952Z,10288
2019-05-23T09:02:46.976Z,10820
2019-05-23T09:03:46.964Z,11932
2019-05-23T09:05:09.122Z,10696
2019-05-23T09:05:46.975Z,10436
2019-05-23T09:06:47.108Z,10492
2019-05-23T09:07:46.987Z,10436
2019-05-23T09:08:46.984Z,10208
2019-05-23T09:09:48.259Z,9472
2019-05-23T09:10:46.990Z,9520
2019-05-23T09:11:46.997Z,9628
2019-05-23T09:12:46.995Z,10128
2019-05-23T09:13:47.005Z,11120
2019-05-23T09:14:46.760Z,11296
2019-05-23T09:15:52.372Z,10868
2019-05-23T09:16:47.077Z,10296
2019-05-23T09:17:59.823Z,9924
2019-05-23T09:18:46.996Z,9636
2019-05-23T09:19:46.993Z,9336
2019-05-23T09:20:47.022Z,9264
2019-05-23T09:21:46.997Z,9256
2019-05-23T09:22:47.012Z,9060
2019-05-23T09:23:47.004Z,8804
2019-05-23T09:24:46.995Z,8720
2019-05-23T09:25:47.002Z,8688
2019-05-23T09:26:46.989Z,8712
2019-05-23T09:27:46.996Z,8688
2019-05-23T09:28:46.755Z,8612
2019-05-23T09:29:46.987Z,8620
2019-05-23T09:30:47.015Z,8580
2019-05-23T09:31:46.995Z,8532
2019-05-23T09:32:46.990Z,8508
2019-05-23T09:33:46.987Z,8484
2019-05-23T09:34:46.999Z,8472
2019-05-23T09:35:47.039Z,8460
2019-05-23T09:36:46.740Z,8484
2019-05-23T09:37:46.999Z,8540
2019-05-23T09:38:47.043Z,8632
2019-05-23T09:39:46.739Z,8736
2019-05-23T09:40:46.985Z,8864
2019-05-23T09:41:46.978Z,8936
2019-05-23T09:42:48.261Z,8976
2019-05-23T09:43:47.019Z,9000
2019-05-23T09:44:46.979Z,9100
2019-05-23T09:45:46.993Z,9300
2019-05-23T09:46:46.976Z,9572
2019-05-23T09:47:50.868Z,9916
2019-05-23T09:48:46.972Z,10140
2019-05-23T09:49:56.302Z,10360
2019-05-23T09:50:46.998Z,10628
2019-05-23T09:51:49.645Z,10820
2019-05-23T09:52:46.948Z,10440
2019-05-23T09:53:52.023Z,9708
2019-05-23T09:54:46.808Z,9324
2019-05-23T09:55:46.944Z,9000
2019-05-23T09:56:46.955Z,8732
2019-05-23T09:57:46.954Z,8544
2019-05-23T09:58:46.936Z,8340
2019-05-23T09:59:46.958Z,8200
2019-05-23T10:00:46.936Z,8084
2019-05-23T10:01:47.078Z,7964
2019-05-23T10:02:46.702Z,7836
2019-05-23T10:03:46.925Z,7728
2019-05-23T10:04:46.969Z,7692
2019-05-23T10:05:50.890Z,7676
2019-05-23T10:06:50.987Z,7700
2019-05-23T10:07:46.928Z,7736
2019-05-23T10:08:46.672Z,7780
2019-05-23T10:14:46.893Z,7568
2019-05-23T10:15:46.686Z,7472
2019-05-23T10:16:46.884Z,7448
2019-05-23T10:17:46.950Z,7492
2019-05-23T10:18:46.946Z,7596
2019-05-23T10:19:46.903Z,7776
2019-05-23T10:20:46.879Z,8168
2019-05-23T10:21:46.874Z,8496
2019-05-23T10:22:46.869Z,8752
2019-05-23T10:23:46.869Z,8676
2019-05-23T10:24:46.867Z,8252
2019-05-23T10:25:46.890Z,7904
2019-05-23T10:26:46.854Z,7812
2019-05-23T10:27:46.882Z,7740
2019-05-23T10:28:46.866Z,7696
2019-05-23T10:29:46.866Z,7716
2019-05-23T10:30:46.861Z,7664
2019-05-23T10:31:46.837Z,7592
2019-05-23T10:32:46.840Z,7576
2019-05-23T10:33:46.831Z,7552
2019-05-23T10:34:46.829Z,7484
2019-05-23T10:36:04.516Z,7412
2019-05-23T10:36:46.833Z,7392
2019-05-23T10:37:46.831Z,7348
2019-05-23T10:38:46.878Z,7312
2019-05-23T10:39:46.829Z,7272
2019-05-23T10:40:46.831Z,7180
2019-05-23T10:41:46.834Z,7092
2019-05-23T10:42:46.565Z,7036
2019-05-23T10:43:46.815Z,6996
2019-05-23T10:44:49.775Z,6996
2019-05-23T10:45:46.796Z,6928
2019-05-23T10:46:46.794Z,6808
2019-05-23T10:48:12.522Z,6736
2019-05-23T10:48:46.854Z,6704
2019-05-23T10:49:46.807Z,6680
2019-05-23T10:50:51.965Z,6672
2019-05-23T10:51:46.782Z,6668
2019-05-23T10:52:46.797Z,6656
2019-05-23T10:53:46.775Z,6672
2019-05-23T10:54:46.776Z,6652
2019-05-23T10:56:05.539Z,6644
2019-05-23T10:56:46.771Z,6644
2019-05-23T10:57:46.787Z,6640
2019-05-23T10:58:46.773Z,6624
2019-05-23T10:59:46.775Z,6592
2019-05-23T11:00:46.788Z,6552
2019-05-23T11:01:46.530Z,6516
2019-05-23T11:02:47.164Z,6488
2019-05-23T11:03:46.744Z,6496
2019-05-23T11:04:46.745Z,6540
2019-05-23T11:05:46.749Z,6564
2019-05-23T11:06:46.746Z,6596
2019-05-23T11:07:46.767Z,6604
2019-05-23T11:08:46.816Z,6612
2019-05-23T11:09:46.735Z,6624
2019-05-23T11:10:46.821Z,6616
2019-05-23T11:11:46.841Z,6584
2019-05-23T11:12:46.747Z,6568
2019-05-23T11:13:46.793Z,6564
2019-05-23T11:14:46.750Z,6584
2019-05-23T11:15:46.727Z,6648
2019-05-23T11:16:46.727Z,6728
2019-05-23T11:17:46.732Z,6800
2019-05-23T11:18:46.930Z,6880
2019-05-23T11:19:46.757Z,6920
2019-05-23T11:20:46.706Z,6960
2019-05-23T11:21:46.760Z,7004
2019-05-23T11:22:46.707Z,7048
2019-05-23T11:23:46.457Z,7088
2019-05-23T11:24:46.707Z,7120
2019-05-23T11:25:46.734Z,7140
2019-05-23T11:26:46.686Z,7176
2019-05-23T11:27:46.942Z,7204
2019-05-23T11:28:46.751Z,7232
2019-05-23T11:29:46.693Z,7272
2019-05-23T11:30:59.443Z,7300
2019-05-23T11:44:46.659Z,7776
